METAR AND TAF INFORMATION
METAR FOR LFSO
ADDS - METARS form results

(1743 UTC 29 January 2023)
Data provider http://aviationweather.gov/metar/data/
 
METAR text: LFSO 291730Z AUTO 24004KT CAVOK M01/M04 Q1026
Conditions at: LFSO (NANCY/OCHEY (FAF, FR) observed 1730 UTC 29 January 2023
Temperature: -1.0°C (30°F)
Dewpoint: -4.0°C (25°F) [RH = 80%]
Pressure (altimeter): 30.30 inches Hg (1026.0 mb)
Winds: from the WSW (240 degrees) at 5 MPH (4 knots; 2.1 m/s)
Visibility: 6 or more miles (10+ km)
Ceiling: ceiling and visibility are OK
Clouds: unknown
Weather: no significant weather observed at this time

METAR text: LFSO 291700Z AUTO 25003KT CAVOK M00/M04 Q1026
Conditions at: LFSO (NANCY/OCHEY (FAF, FR) observed 1700 UTC 29 January 2023
Temperature: 0.0°C (32°F)
Dewpoint: -4.0°C (25°F) [RH = 74%]
Pressure (altimeter): 30.30 inches Hg (1026.0 mb)
Winds: from the WSW (250 degrees) at 3 MPH (3 knots; 1.5 m/s)
Visibility: 6 or more miles (10+ km)
Ceiling: ceiling and visibility are OK
Clouds: unknown
Weather: no significant weather observed at this time

 AIRPORT MAP

 RUNWAY INFORMATION
Runway 02 Runway length 7878 ft Runway width 148 ft
Runway elevation 1105 ft Runway displaced threshold 0 ft Runway heading 19
Runway 20 Runway length 7878 ft Runway width 148 ft
Runway elevation 1066 ft Runway displaced threshold 0 ft Runway heading 199

 AIRPORT FREQUENCIES
Type APP Name APP Frequency 36.23 MHZ
Type APP Name APP Frequency 127.25 MHZ
Type TWR Name TWR Frequency 122.1 MHZ

 AIRPORT NEAR NAVIGATION AIDS
Type TACAN Name Nancy Frequency 116800 KHZ



Powered by Virtual Airlines Manager [v2.6.2]